ADDS METAR Data INFO
IDs: Format: Raw Decoded Include TAF

Data at: 2307 UTC 21 Feb 2018

KTAD 212254Z AUTO 03013KT 10SM CLR 03/M11 A3004 RMK AO2 SLP208 T00331111
KTAD 212154Z AUTO 06007KT 10SM CLR 03/M12 A3005 RMK AO2 SLP211 T00281117
KTAD 212054Z AUTO 06007KT 10SM CLR 01/M12 A3008 RMK AO2 SLP220 T00111117 58030
KTAD 211954Z AUTO 11008KT 10SM CLR M01/M12 A3012 RMK AO2 SLP241 T10111117
KTAD 211854Z AUTO 09007KT 10SM CLR M02/M12 A3016 RMK AO2 SLP255 T10221122
KTAD 211754Z AUTO 09004KT 10SM CLR M04/M12 A3018 RMK AO2 SLP270 T10441122 11044 21156 58013
KTAD 211654Z AUTO 12004KT 10SM CLR M06/M13 A3020 RMK AO2 SLP277 T10611128
KTAD 211554Z AUTO 00000KT 10SM CLR M08/M13 A3023 RMK AO2 SLP289 T10831128
KTAD 211454Z AUTO 30004KT 10SM CLR M11/M14 A3022 RMK AO2 SLP297 T11111144 53013
KTAD 211354Z AUTO 33006KT 10SM CLR M15/M17 A3021 RMK AO2 SLP297 T11501172
KTAD 211254Z AUTO 31007KT 10SM CLR M15/M18 A3019 RMK AO2 SLP284 T11501178
KTAD 210754Z AUTO 02005KT 10SM CLR M12/M15 A3019 RMK AO2 SLP280 T11221150
KTAD 210654Z AUTO 35004KT 10SM CLR M12/M14 A3020 RMK AO2 SLP283 T11171144 410061133
KTAD 210554Z AUTO 32004KT 10SM CLR M11/M13 A3020 RMK AO2 SLP290 T11111133 11028 21111 51026
KTAD 201454Z AUTO 03008KT 5SM -SN BR OVC005 M12/M13 A2986 RMK AO2 SNB36 SLP160 P0000 60000 I3000 T11221133 51020
KTAD 201451Z AUTO 04008KT 4SM -SN BR OVC005 M12/M13 A2986 RMK AO2 SNB36 P0000
KTAD 201402Z AUTO 36006KT 8SM OVC004 M12/M13 A2983 RMK AO2 T11171133 $
KTAD 201354Z AUTO 02003KT 8SM OVC005 M12/M13 A2982 RMK AO2 SLP144 I1000 T11221133 $
KTAD 201325Z AUTO 08007KT 10SM BKN006 M12/M14 A2981 RMK AO2 T11221144 $
KTAD 201316Z AUTO 08005KT 10SM SCT007 M13/M15 A2980 RMK AO2 T11331150 $
KTAD 201254Z AUTO 09004KT 10SM CLR M13/M14 A2979 RMK AO2 SLP132 T11281144 $
KTAD 201207Z AUTO 07006KT 10SM SCT008 BKN090 M12/M14 A2977 RMK AO2 T11221139 $
KTAD 201154Z AUTO 06003KT 10SM BKN008 BKN095 M11/M13 A2977 RMK AO2 SLP114 60001 70002 T11111128 11056 21111 53012 $
KTAD 201143Z AUTO 10003KT 10SM OVC009 M11/M12 A2976 RMK AO2 T11061122 $